Overview Statistics Trail Chart Weather Telemetry Raw packets
 

This is the latest recevied weather packets stored in our database for station/object LU4EGV-13. If no packets are shown the sender has not sent any weather packets the latest 10 day(s).

<< 1 2 3 4 5 6 >>
Time Temp. Humidity Pressure Rain* Wind** Luminosity Snow
1788651285 6.67° C 84% 1025.8 hPa 0 mm - - -
1788650677 6.67° C 84% 1025.5 hPa 0 mm - - -
1788650071 6.67° C 83% 1025.3 hPa 0 mm - - -
1788649479 6.67° C 81% 1025.1 hPa 0 mm - - -
1788648860 7.22° C 79% 1025.2 hPa 0 mm - - -
1788648253 7.22° C 78% 1024.9 hPa 0 mm - - -
1788647646 7.22° C 77% 1024.7 hPa 0 mm - - -
1788647040 7.78° C 77% 1024.5 hPa 0 mm - - -
1788646435 7.78° C 78% 1024.6 hPa 0 mm - - -
1788645829 7.78° C 79% 1024.7 hPa 0 mm - - -
1788645223 7.78° C 79% 1024.7 hPa 0 mm - - -
1788644616 7.78° C 80% 1024.5 hPa 0 mm - - -
1788644011 7.78° C 77% 1024.5 hPa 0 mm - - -
1788643405 8.33° C 72% 1024.4 hPa 0 mm - - -
1788642798 10.56° C 56% 1024.2 hPa 0 mm - - -
1788642191 10.56° C 53% 1023.5 hPa 0 mm - - -
1788641596 11.11° C 52% 1023.2 hPa 0 mm - - -
1788640978 10.56° C 52% 1023 hPa 0 mm - - -
1788640373 11.67° C 50% 1022.9 hPa 0 mm - - -
1788639766 11.11° C 50% 1022.5 hPa 0 mm - - -
1788639160 11.67° C 44% 1022.5 hPa 0 mm - - -
1788638554 12.22° C 47% 1022.3 hPa 0 mm - - -
1788637948 12.22° C 51% 1022.3 hPa 0 mm - - -
1788637342 12.22° C 49% 1022.1 hPa 0 mm - - -
1788636737 12.22° C 52% 1021.8 hPa 0 mm - - -

* Rain latest hour (hover to see other rain measurements)
** Current wind speed in m/s (hover to see current wind gust speed)